createdAt,value
2018-07-20T00:00:51.452Z,1010.47
2018-07-20T00:01:51.446Z,1010.44
2018-07-20T00:02:51.423Z,1010.41
2018-07-20T00:03:51.411Z,1010.41
2018-07-20T00:04:51.398Z,1010.44
2018-07-20T00:05:51.536Z,1010.43
2018-07-20T00:06:51.373Z,1010.42
2018-07-20T00:07:51.356Z,1010.43
2018-07-20T00:08:51.356Z,1010.43
2018-07-20T00:09:51.333Z,1010.42
2018-07-20T00:10:51.317Z,1010.43
2018-07-20T00:11:51.307Z,1010.44
2018-07-20T00:12:51.294Z,1010.42
2018-07-20T00:13:51.320Z,1010.39
2018-07-20T00:14:51.264Z,1010.38
2018-07-20T00:15:51.253Z,1010.37
2018-07-20T00:16:51.302Z,1010.36
2018-07-20T00:17:51.222Z,1010.42
2018-07-20T00:18:51.215Z,1010.37
2018-07-20T00:19:51.199Z,1010.39
2018-07-20T00:20:51.192Z,1010.36
2018-07-20T00:21:51.176Z,1010.34
2018-07-20T00:22:51.210Z,1010.36
2018-07-20T00:23:51.145Z,1010.35
2018-07-20T00:24:51.132Z,1010.33
2018-07-20T00:25:51.120Z,1010.32
2018-07-20T00:26:51.128Z,1010.34
2018-07-20T00:27:51.095Z,1010.30
2018-07-20T00:28:51.082Z,1010.32
2018-07-20T00:29:51.071Z,1010.32
2018-07-20T00:30:51.057Z,1010.31
2018-07-20T00:31:51.040Z,1010.29
2018-07-20T00:32:51.025Z,1010.31
2018-07-20T00:33:51.016Z,1010.29
2018-07-20T00:34:51.002Z,1010.27
2018-07-20T00:35:50.986Z,1010.27
2018-07-20T00:36:50.981Z,1010.24
2018-07-20T00:37:51.000Z,1010.20
2018-07-20T00:38:50.948Z,1010.22
2018-07-20T00:39:50.935Z,1010.22
2018-07-20T00:40:50.925Z,1010.20
2018-07-20T00:41:50.915Z,1010.16
2018-07-20T00:42:50.898Z,1010.18
2018-07-20T00:43:50.885Z,1010.14
2018-07-20T00:44:50.868Z,1010.12
2018-07-20T00:45:50.858Z,1010.10
2018-07-20T00:46:50.848Z,1010.11
2018-07-20T00:47:50.834Z,1010.10
2018-07-20T00:48:50.864Z,1010.13
2018-07-20T00:49:50.804Z,1010.07
2018-07-20T00:50:50.795Z,1010.09
2018-07-20T00:51:50.776Z,1010.07
2018-07-20T00:52:50.763Z,1010.03
2018-07-20T00:53:50.749Z,1010.04
2018-07-20T00:54:50.736Z,1009.99
2018-07-20T00:55:50.723Z,1009.99
2018-07-20T00:56:50.709Z,1009.97
2018-07-20T00:57:50.714Z,1009.92
2018-07-20T00:58:50.685Z,1009.97
2018-07-20T00:59:50.669Z,1009.93
2018-07-20T01:00:50.660Z,1009.94
2018-07-20T01:01:50.646Z,1009.93
2018-07-20T01:02:50.630Z,1009.92
2018-07-20T01:03:50.615Z,1009.91
2018-07-20T01:04:50.609Z,1009.90
2018-07-20T01:05:50.590Z,1009.86
2018-07-20T01:06:50.580Z,1009.87
2018-07-20T01:07:50.564Z,1009.85
2018-07-20T01:08:50.554Z,1009.86
2018-07-20T01:09:50.542Z,1009.85
2018-07-20T01:10:50.526Z,1009.84
2018-07-20T01:11:50.520Z,1009.82
2018-07-20T01:12:50.599Z,1009.82
2018-07-20T01:13:50.487Z,1009.80
2018-07-20T01:14:50.475Z,1009.78
2018-07-20T01:15:50.467Z,1009.80
2018-07-20T01:16:50.447Z,1009.74
2018-07-20T01:17:50.434Z,1009.72
2018-07-20T01:18:50.420Z,1009.75
2018-07-20T01:19:50.407Z,1009.74
2018-07-20T01:20:50.399Z,1009.75
2018-07-20T01:21:50.383Z,1009.77
2018-07-20T01:22:50.366Z,1009.73
2018-07-20T01:23:50.353Z,1009.76
2018-07-20T01:24:50.345Z,1009.76
2018-07-20T01:25:50.327Z,1009.77
2018-07-20T01:26:50.314Z,1009.75
2018-07-20T01:27:50.325Z,1009.76
2018-07-20T01:28:50.442Z,1009.78
2018-07-20T01:29:50.274Z,1009.74
2018-07-20T01:30:50.266Z,1009.76
2018-07-20T01:31:50.247Z,1009.74
2018-07-20T01:32:50.239Z,1009.72
2018-07-20T01:33:50.222Z,1009.75
2018-07-20T01:34:50.208Z,1009.71
2018-07-20T01:35:50.194Z,1009.74
2018-07-20T01:36:50.179Z,1009.75
2018-07-20T01:37:50.166Z,1009.73
2018-07-20T01:38:50.154Z,1009.74
2018-07-20T01:39:50.138Z,1009.71
2018-07-20T01:40:50.127Z,1009.75
2018-07-20T01:41:50.120Z,1009.76
2018-07-20T01:42:50.106Z,1009.72
2018-07-20T01:43:50.085Z,1009.75
2018-07-20T01:44:50.151Z,1009.73
2018-07-20T01:45:50.063Z,1009.73
2018-07-20T01:46:50.049Z,1009.74
2018-07-20T01:47:50.085Z,1009.74
2018-07-20T01:48:50.022Z,1009.67
2018-07-20T01:49:50.106Z,1009.77
2018-07-20T01:50:49.995Z,1009.73
2018-07-20T01:51:49.980Z,1009.74
2018-07-20T01:52:49.964Z,1009.73
2018-07-20T01:53:49.954Z,1009.69
2018-07-20T01:54:49.987Z,1009.69
2018-07-20T01:55:49.927Z,1009.75
2018-07-20T01:56:49.912Z,1009.71
2018-07-20T01:57:49.901Z,1009.70
2018-07-20T01:58:49.887Z,1009.72
2018-07-20T01:59:49.883Z,1009.74
2018-07-20T02:00:49.861Z,1009.71
2018-07-20T02:01:49.850Z,1009.73
2018-07-20T02:02:49.836Z,1009.77
2018-07-20T02:03:49.827Z,1009.77
2018-07-20T02:04:49.808Z,1009.78
2018-07-20T02:05:49.795Z,1009.82
2018-07-20T02:06:49.778Z,1009.77
2018-07-20T02:07:49.766Z,1009.77
2018-07-20T02:08:49.755Z,1009.75
2018-07-20T02:09:49.738Z,1009.78
2018-07-20T02:10:49.724Z,1009.78
2018-07-20T02:11:49.816Z,1009.73
2018-07-20T02:12:49.697Z,1009.72
2018-07-20T02:13:49.685Z,1009.74
2018-07-20T02:14:49.671Z,1009.71
2018-07-20T02:15:49.665Z,1009.69
2018-07-20T02:16:49.645Z,1009.68
2018-07-20T02:17:49.636Z,1009.70
2018-07-20T02:18:49.617Z,1009.71
2018-07-20T02:19:49.602Z,1009.69
2018-07-20T02:20:49.592Z,1009.68
2018-07-20T02:21:49.576Z,1009.65
2018-07-20T02:22:49.721Z,1009.70
2018-07-20T02:23:49.549Z,1009.67
2018-07-20T02:24:49.553Z,1009.63
2018-07-20T02:25:49.525Z,1009.64
2018-07-20T02:26:49.509Z,1009.64
2018-07-20T02:27:49.505Z,1009.62
2018-07-20T02:28:49.486Z,1009.64
2018-07-20T02:29:49.487Z,1009.63
2018-07-20T02:30:49.482Z,1009.59
2018-07-20T02:31:49.441Z,1009.59
2018-07-20T02:32:49.427Z,1009.57
2018-07-20T02:33:49.413Z,1009.57
2018-07-20T02:34:49.405Z,1009.56
2018-07-20T02:35:49.389Z,1009.56
2018-07-20T02:36:49.376Z,1009.55
2018-07-20T02:37:49.361Z,1009.52
2018-07-20T02:38:49.348Z,1009.51
2018-07-20T02:39:49.335Z,1009.49
2018-07-20T02:40:49.324Z,1009.50
2018-07-20T02:41:49.309Z,1009.51
2018-07-20T02:42:49.293Z,1009.49
2018-07-20T02:43:49.286Z,1009.47
2018-07-20T02:44:49.274Z,1009.46
2018-07-20T02:45:49.255Z,1009.49
2018-07-20T02:46:49.246Z,1009.47
2018-07-20T02:47:49.228Z,1009.46
2018-07-20T02:48:49.211Z,1009.47
2018-07-20T02:49:49.203Z,1009.46
2018-07-20T02:50:49.186Z,1009.46
2018-07-20T02:51:49.176Z,1009.45
2018-07-20T02:52:49.158Z,1009.49
2018-07-20T02:53:49.145Z,1009.45
2018-07-20T02:54:49.284Z,1009.44
2018-07-20T02:55:49.116Z,1009.41
2018-07-20T02:56:49.105Z,1009.45
2018-07-20T02:57:49.096Z,1009.43
2018-07-20T02:58:49.083Z,1009.42
2018-07-20T02:59:49.064Z,1009.43
2018-07-20T03:00:49.060Z,1009.42
2018-07-20T03:01:49.037Z,1009.43
2018-07-20T03:02:49.027Z,1009.43
2018-07-20T03:03:49.007Z,1009.42
2018-07-20T03:04:48.994Z,1009.39
2018-07-20T03:05:48.981Z,1009.41
2018-07-20T03:06:48.973Z,1009.40
2018-07-20T03:07:48.960Z,1009.41
2018-07-20T03:08:48.941Z,1009.44
2018-07-20T03:09:48.930Z,1009.42
2018-07-20T03:10:48.969Z,1009.45
2018-07-20T03:11:48.901Z,1009.45
2018-07-20T03:12:48.886Z,1009.45
2018-07-20T03:13:48.880Z,1009.48
2018-07-20T03:14:48.861Z,1009.44
2018-07-20T03:15:48.855Z,1009.44
2018-07-20T03:16:48.834Z,1009.45
2018-07-20T03:17:48.818Z,1009.44
2018-07-20T03:18:48.805Z,1009.43
2018-07-20T03:19:48.797Z,1009.47
2018-07-20T03:20:48.778Z,1009.41
2018-07-20T03:21:48.766Z,1009.42
2018-07-20T03:22:48.755Z,1009.44
2018-07-20T03:23:48.740Z,1009.43
2018-07-20T03:24:48.735Z,1009.40
2018-07-20T03:25:48.707Z,1009.41
2018-07-20T03:26:48.716Z,1009.38
2018-07-20T03:27:48.684Z,1009.34
2018-07-20T03:28:48.666Z,1009.37
2018-07-20T03:29:48.708Z,1009.39
2018-07-20T03:30:48.638Z,1009.37
2018-07-20T03:31:48.625Z,1009.36
2018-07-20T03:32:48.708Z,1009.34
2018-07-20T03:33:48.606Z,1009.34
2018-07-20T03:34:48.695Z,1009.31
2018-07-20T03:35:48.573Z,1009.31
2018-07-20T03:36:48.555Z,1009.35
2018-07-20T03:37:48.649Z,1009.30
2018-07-20T03:38:48.539Z,1009.28
2018-07-20T03:39:48.514Z,1009.34
2018-07-20T03:40:48.505Z,1009.32
2018-07-20T03:41:48.488Z,1009.33
2018-07-20T03:42:48.473Z,1009.31
2018-07-20T03:43:48.459Z,1009.32
2018-07-20T03:44:48.445Z,1009.34
2018-07-20T03:45:48.430Z,1009.39
2018-07-20T03:46:48.415Z,1009.38
2018-07-20T03:47:48.405Z,1009.33
2018-07-20T03:48:48.390Z,1009.33
2018-07-20T03:49:48.376Z,1009.34
2018-07-20T03:50:48.366Z,1009.37
2018-07-20T03:51:48.348Z,1009.34
2018-07-20T03:52:48.334Z,1009.31
2018-07-20T03:53:48.423Z,1009.31
2018-07-20T03:54:48.305Z,1009.32
2018-07-20T03:55:48.295Z,1009.31
2018-07-20T03:56:48.337Z,1009.33
2018-07-20T03:57:48.263Z,1009.32
2018-07-20T03:58:48.248Z,1009.29
2018-07-20T03:59:48.234Z,1009.33
2018-07-20T04:00:48.220Z,1009.25
2018-07-20T04:01:48.205Z,1009.28
2018-07-20T04:02:48.195Z,1009.25
2018-07-20T04:03:48.179Z,1009.25
2018-07-20T04:04:48.164Z,1009.29
2018-07-20T04:05:48.153Z,1009.28
2018-07-20T04:06:48.138Z,1009.28
2018-07-20T04:07:48.122Z,1009.30
2018-07-20T04:08:48.134Z,1009.31
2018-07-20T04:09:48.098Z,1009.28
2018-07-20T04:10:48.082Z,1009.27
2018-07-20T04:11:48.074Z,1009.26
2018-07-20T04:12:48.056Z,1009.22
2018-07-20T04:13:48.040Z,1009.21
2018-07-20T04:14:48.027Z,1009.20
2018-07-20T04:15:48.013Z,1009.19
2018-07-20T04:16:47.996Z,1009.19
2018-07-20T04:17:47.980Z,1009.21
2018-07-20T04:18:47.972Z,1009.17
2018-07-20T04:19:47.956Z,1009.18
2018-07-20T04:20:47.938Z,1009.21
2018-07-20T04:21:47.924Z,1009.20
2018-07-20T04:22:47.914Z,1009.22
2018-07-20T04:23:47.896Z,1009.23
2018-07-20T04:24:47.886Z,1009.23
2018-07-20T04:25:47.870Z,1009.25
2018-07-20T04:26:47.857Z,1009.23
2018-07-20T04:27:47.849Z,1009.20
2018-07-20T04:28:47.826Z,1009.20
2018-07-20T04:29:47.810Z,1009.18
2018-07-20T04:30:47.796Z,1009.20
2018-07-20T04:31:47.782Z,1009.18
2018-07-20T04:32:47.775Z,1009.19
2018-07-20T04:33:47.865Z,1009.18
2018-07-20T04:34:47.736Z,1009.16
2018-07-20T04:35:47.728Z,1009.18
2018-07-20T04:36:47.763Z,1009.18
2018-07-20T04:37:47.703Z,1009.15
2018-07-20T04:38:47.680Z,1009.12
2018-07-20T04:39:47.669Z,1009.12
2018-07-20T04:40:47.658Z,1009.13
2018-07-20T04:41:47.638Z,1009.09
2018-07-20T04:42:47.627Z,1009.12
2018-07-20T04:43:47.668Z,1009.10
2018-07-20T04:44:47.599Z,1009.10
2018-07-20T04:45:47.582Z,1009.15
2018-07-20T04:46:47.580Z,1009.16
2018-07-20T04:47:47.554Z,1009.17
2018-07-20T04:48:47.541Z,1009.16
2018-07-20T04:49:47.526Z,1009.19
2018-07-20T04:50:47.513Z,1009.20
2018-07-20T04:51:47.498Z,1009.23
2018-07-20T04:52:47.489Z,1009.20
2018-07-20T04:53:47.467Z,1009.20
2018-07-20T04:54:47.460Z,1009.23
2018-07-20T04:55:47.489Z,1009.23
2018-07-20T04:56:47.425Z,1009.23
2018-07-20T04:57:47.418Z,1009.23
2018-07-20T04:58:47.423Z,1009.23
2018-07-20T04:59:47.383Z,1009.23
2018-07-20T05:00:47.371Z,1009.28
2018-07-20T05:01:47.353Z,1009.24
2018-07-20T05:02:47.337Z,1009.23
2018-07-20T05:03:47.368Z,1009.24
2018-07-20T05:04:47.310Z,1009.23
2018-07-20T05:05:47.303Z,1009.23
2018-07-20T05:06:47.283Z,1009.23
2018-07-20T05:07:47.267Z,1009.22
2018-07-20T05:08:47.272Z,1009.23
2018-07-20T05:09:47.239Z,1009.21
2018-07-20T05:10:47.229Z,1009.21
2018-07-20T05:11:47.241Z,1009.19
2018-07-20T05:12:47.200Z,1009.21
2018-07-20T05:13:47.185Z,1009.16
2018-07-20T05:14:47.170Z,1009.15
2018-07-20T05:15:47.152Z,1009.15
2018-07-20T05:16:47.147Z,1009.12
2018-07-20T05:17:47.124Z,1009.15
2018-07-20T05:18:47.112Z,1009.09
2018-07-20T05:19:47.138Z,1009.11
2018-07-20T05:20:47.085Z,1009.06
2018-07-20T05:21:47.069Z,1009.09
2018-07-20T05:22:47.052Z,1009.10
2018-07-20T05:23:47.039Z,1009.08
2018-07-20T05:24:47.091Z,1009.09
2018-07-20T05:25:47.025Z,1009.08
2018-07-20T05:26:47.005Z,1009.12
2018-07-20T05:27:46.989Z,1009.07
2018-07-20T05:28:46.973Z,1009.07
2018-07-20T05:29:46.967Z,1009.08
2018-07-20T05:30:46.943Z,1009.04
2018-07-20T05:31:46.928Z,1009.07
2018-07-20T05:32:46.913Z,1009.11
2018-07-20T05:33:46.898Z,1009.07
2018-07-20T05:34:46.887Z,1009.05
2018-07-20T05:35:46.878Z,1009.08
2018-07-20T05:36:46.858Z,1009.08
2018-07-20T05:37:46.838Z,1009.06
2018-07-20T05:38:46.838Z,1009.10
2018-07-20T05:39:46.817Z,1009.09
2018-07-20T05:40:46.799Z,1009.10
2018-07-20T05:41:46.785Z,1009.09
2018-07-20T05:42:46.771Z,1009.11
2018-07-20T05:43:46.756Z,1009.09
2018-07-20T05:44:46.748Z,1009.08
2018-07-20T05:45:46.728Z,1009.04
2018-07-20T05:46:46.713Z,1009.05
2018-07-20T05:47:46.700Z,1009.03
2018-07-20T05:48:46.686Z,1009.06
2018-07-20T05:49:46.673Z,1009.10
2018-07-20T05:50:46.657Z,1009.06
2018-07-20T05:51:46.643Z,1009.05
2018-07-20T05:52:46.634Z,1009.03
2018-07-20T05:53:46.614Z,1009.00
2018-07-20T05:54:46.602Z,1009.00
2018-07-20T05:55:46.586Z,1009.01
2018-07-20T05:56:46.573Z,1008.99
2018-07-20T05:57:46.562Z,1009.02
2018-07-20T05:58:46.545Z,1009.03
2018-07-20T05:59:46.531Z,1009.02
2018-07-20T06:00:46.515Z,1009.00
2018-07-20T06:01:46.511Z,1008.98
2018-07-20T06:02:46.490Z,1008.99
2018-07-20T06:03:46.480Z,1009.00
2018-07-20T06:04:46.476Z,1008.95
2018-07-20T06:05:46.451Z,1008.96
2018-07-20T06:06:46.436Z,1008.96
2018-07-20T06:07:46.422Z,1008.97
2018-07-20T06:08:46.462Z,1008.95
2018-07-20T06:09:46.397Z,1008.99
2018-07-20T06:10:46.381Z,1008.99
2018-07-20T06:11:46.363Z,1008.99
2018-07-20T06:12:46.351Z,1009.02
2018-07-20T06:13:46.335Z,1009.01
2018-07-20T06:14:46.324Z,1009.00
2018-07-20T06:15:46.427Z,1009.01
2018-07-20T06:16:46.293Z,1009.00
2018-07-20T06:17:46.280Z,1009.00
2018-07-20T06:18:46.316Z,1009.03
2018-07-20T06:19:46.253Z,1009.03
2018-07-20T06:20:46.238Z,1009.06
2018-07-20T06:21:46.229Z,1009.07
2018-07-20T06:22:46.214Z,1009.08
2018-07-20T06:23:46.265Z,1009.09
2018-07-20T06:24:46.184Z,1009.09
2018-07-20T06:25:46.174Z,1009.05
2018-07-20T06:26:46.158Z,1009.03
2018-07-20T06:27:46.142Z,1009.07
2018-07-20T06:28:46.134Z,1009.04
2018-07-20T06:29:46.116Z,1009.04
2018-07-20T06:30:46.102Z,1009.03
2018-07-20T06:31:46.091Z,1009.06
2018-07-20T06:32:46.079Z,1009.06
2018-07-20T06:33:46.062Z,1009.03
2018-07-20T06:34:46.064Z,1009.07
2018-07-20T06:35:46.033Z,1009.03
2018-07-20T06:36:46.021Z,1009.03
2018-07-20T06:37:46.016Z,1008.99
2018-07-20T06:38:45.995Z,1009.00
2018-07-20T06:39:45.984Z,1008.96
2018-07-20T06:40:46.014Z,1008.97
2018-07-20T06:41:45.957Z,1008.95
2018-07-20T06:42:45.957Z,1008.94
2018-07-20T06:43:45.945Z,1008.90
2018-07-20T06:44:45.912Z,1008.92
2018-07-20T06:45:45.900Z,1008.92
2018-07-20T06:46:45.886Z,1008.94
2018-07-20T06:47:45.883Z,1008.91
2018-07-20T06:48:45.860Z,1008.93
2018-07-20T06:49:45.853Z,1008.96
2018-07-20T06:50:45.844Z,1008.94
2018-07-20T06:51:45.828Z,1008.98
2018-07-20T06:52:45.805Z,1008.98
2018-07-20T06:53:45.845Z,1008.98
2018-07-20T06:54:45.781Z,1008.99
2018-07-20T06:55:45.766Z,1009.00
2018-07-20T06:56:45.755Z,1009.02
2018-07-20T06:57:45.753Z,1008.98
2018-07-20T06:58:45.731Z,1008.97
2018-07-20T06:59:45.720Z,1009.01
2018-07-20T07:00:45.701Z,1009.02
2018-07-20T07:01:45.759Z,1009.00
2018-07-20T07:02:45.676Z,1009.00
2018-07-20T07:03:45.670Z,1009.01
2018-07-20T07:04:45.652Z,1009.04
2018-07-20T07:05:45.649Z,1008.99
2018-07-20T07:06:45.639Z,1009.02
2018-07-20T07:07:45.615Z,1009.01
2018-07-20T07:08:45.595Z,1009.01
2018-07-20T07:09:45.579Z,1009.01
2018-07-20T07:10:45.573Z,1008.98
2018-07-20T07:11:45.556Z,1009.00
2018-07-20T07:12:45.545Z,1008.96
2018-07-20T07:13:45.535Z,1008.96
2018-07-20T07:14:45.519Z,1008.95
2018-07-20T07:15:45.503Z,1008.98
2018-07-20T07:16:45.507Z,1008.98
2018-07-20T07:17:45.529Z,1008.99
2018-07-20T07:18:45.465Z,1009.03
2018-07-20T07:19:45.453Z,1008.99
2018-07-20T07:20:45.493Z,1008.99
2018-07-20T07:21:45.424Z,1009.01
2018-07-20T07:22:45.411Z,1008.98
2018-07-20T07:23:45.438Z,1009.00
2018-07-20T07:24:45.386Z,1008.99
2018-07-20T07:25:45.375Z,1008.99
2018-07-20T07:26:45.360Z,1009.03
2018-07-20T07:27:45.344Z,1009.04
2018-07-20T07:28:45.336Z,1009.03
2018-07-20T07:29:45.320Z,1009.06
2018-07-20T07:30:45.305Z,1009.04
2018-07-20T07:31:45.295Z,1009.02
2018-07-20T07:32:45.280Z,1009.05
2018-07-20T07:33:45.420Z,1009.05
2018-07-20T07:34:45.266Z,1009.02
2018-07-20T07:35:45.248Z,1009.01
2018-07-20T07:36:45.238Z,1009.04
2018-07-20T07:37:45.217Z,1009.04
2018-07-20T07:38:45.213Z,1009.00
2018-07-20T07:39:45.190Z,1009.02
2018-07-20T07:40:45.177Z,1009.02
2018-07-20T07:41:45.173Z,1009.03
2018-07-20T07:42:45.161Z,1009.05
2018-07-20T07:43:45.140Z,1009.00
2018-07-20T07:44:45.137Z,1009.02
2018-07-20T07:45:45.116Z,1009.05
2018-07-20T07:46:45.104Z,1009.08
2018-07-20T07:47:45.095Z,1009.05
2018-07-20T07:48:45.076Z,1009.07
2018-07-20T07:49:45.067Z,1009.04
2018-07-20T07:50:45.052Z,1009.08
2018-07-20T07:51:45.040Z,1009.05
2018-07-20T07:52:45.029Z,1009.06
2018-07-20T07:53:45.017Z,1009.07
2018-07-20T07:54:45.040Z,1009.09
2018-07-20T07:55:44.989Z,1009.06
2018-07-20T07:56:44.977Z,1009.10
2018-07-20T07:57:44.971Z,1009.07
2018-07-20T07:58:44.949Z,1009.05
2018-07-20T07:59:44.939Z,1009.04
2018-07-20T08:00:45.027Z,1009.06
2018-07-20T08:01:44.917Z,1009.03
2018-07-20T08:02:44.907Z,1009.03
2018-07-20T08:03:44.891Z,1009.07
2018-07-20T08:04:44.879Z,1009.03
2018-07-20T08:05:44.867Z,1009.03
2018-07-20T08:06:44.877Z,1008.98
2018-07-20T08:07:44.849Z,1009.02
2018-07-20T08:08:44.829Z,1009.00
2018-07-20T08:09:44.831Z,1009.00
2018-07-20T08:10:44.807Z,1008.98
2018-07-20T08:11:44.790Z,1008.99
2018-07-20T08:12:44.782Z,1008.99
2018-07-20T08:13:44.769Z,1009.01
2018-07-20T08:14:44.759Z,1008.99
2018-07-20T08:15:44.779Z,1008.98
2018-07-20T08:16:44.734Z,1008.95
2018-07-20T08:17:44.725Z,1008.97
2018-07-20T08:18:44.715Z,1008.93
2018-07-20T08:19:44.695Z,1008.95
2018-07-20T08:20:44.683Z,1008.93
2018-07-20T08:21:44.671Z,1008.94
2018-07-20T08:22:44.673Z,1008.94
2018-07-20T08:23:44.655Z,1008.89
2018-07-20T08:24:44.639Z,1008.92
2018-07-20T08:25:44.629Z,1008.92
2018-07-20T08:26:44.615Z,1008.89
2018-07-20T08:27:44.606Z,1008.93
2018-07-20T08:28:44.591Z,1008.93
2018-07-20T08:29:44.582Z,1008.90
2018-07-20T08:30:44.571Z,1008.93
2018-07-20T08:31:44.554Z,1008.91
2018-07-20T08:32:44.661Z,1008.89
2018-07-20T08:33:44.537Z,1008.88
2018-07-20T08:34:44.522Z,1008.89
2018-07-20T08:35:44.512Z,1008.85
2018-07-20T08:36:44.506Z,1008.85
2018-07-20T08:37:44.500Z,1008.85
2018-07-20T08:38:44.526Z,1008.89
2018-07-20T08:39:44.468Z,1008.88
2018-07-20T08:40:44.564Z,1008.85
2018-07-20T08:41:44.459Z,1008.83
2018-07-20T08:42:44.442Z,1008.85
2018-07-20T08:43:44.430Z,1008.84
2018-07-20T08:44:44.411Z,1008.83
2018-07-20T08:45:44.404Z,1008.84
2018-07-20T08:46:44.391Z,1008.81
2018-07-20T08:47:44.379Z,1008.80
2018-07-20T08:48:44.365Z,1008.83
2018-07-20T08:49:44.352Z,1008.79
2018-07-20T08:50:44.345Z,1008.77
2018-07-20T08:51:44.337Z,1008.78
2018-07-20T08:52:44.327Z,1008.79
2018-07-20T08:53:44.309Z,1008.78
2018-07-20T08:54:44.302Z,1008.79
2018-07-20T08:55:44.285Z,1008.79
2018-07-20T08:56:44.327Z,1008.75
2018-07-20T08:57:44.268Z,1008.78
2018-07-20T08:58:44.258Z,1008.76
2018-07-20T08:59:44.244Z,1008.80
2018-07-20T09:00:44.249Z,1008.76
2018-07-20T09:01:44.224Z,1008.77
2018-07-20T09:02:44.226Z,1008.79
2018-07-20T09:03:44.234Z,1008.76
2018-07-20T09:04:44.191Z,1008.77
2018-07-20T09:05:44.180Z,1008.76
2018-07-20T09:06:44.168Z,1008.78
2018-07-20T09:07:44.162Z,1008.75
2018-07-20T09:08:44.148Z,1008.75
2018-07-20T09:09:44.139Z,1008.74
2018-07-20T09:10:44.126Z,1008.75
2018-07-20T09:11:44.115Z,1008.72
2018-07-20T09:12:44.111Z,1008.71
2018-07-20T09:13:44.181Z,1008.69
2018-07-20T09:14:44.086Z,1008.69
2018-07-20T09:15:44.068Z,1008.67
2018-07-20T09:16:44.073Z,1008.69
2018-07-20T09:17:44.049Z,1008.68
2018-07-20T09:18:44.037Z,1008.63
2018-07-20T09:19:44.026Z,1008.66
2018-07-20T09:20:44.113Z,1008.63
2018-07-20T09:21:44.007Z,1008.64
2018-07-20T09:22:44.006Z,1008.64
2018-07-20T09:23:43.987Z,1008.63
2018-07-20T09:24:43.976Z,1008.64
2018-07-20T09:25:43.972Z,1008.63
2018-07-20T09:26:43.962Z,1008.59
2018-07-20T09:27:43.947Z,1008.59
2018-07-20T09:28:43.936Z,1008.57
2018-07-20T09:29:43.932Z,1008.56
2018-07-20T09:30:43.915Z,1008.55
2018-07-20T09:31:43.901Z,1008.53
2018-07-20T09:32:43.902Z,1008.57
2018-07-20T09:33:43.898Z,1008.51
2018-07-20T09:34:43.885Z,1008.55
2018-07-20T09:35:43.860Z,1008.54
2018-07-20T09:36:44.004Z,1008.50
2018-07-20T09:37:43.862Z,1008.53
2018-07-20T09:38:43.828Z,1008.52
2018-07-20T09:39:43.820Z,1008.52
2018-07-20T09:40:43.809Z,1008.48
2018-07-20T09:41:43.805Z,1008.53
2018-07-20T09:42:43.837Z,1008.48
2018-07-20T09:43:43.778Z,1008.47
2018-07-20T09:44:43.774Z,1008.51
2018-07-20T09:45:43.759Z,1008.51
2018-07-20T09:46:43.747Z,1008.54
2018-07-20T09:47:43.736Z,1008.53
2018-07-20T09:48:43.736Z,1008.55
2018-07-20T09:49:43.731Z,1008.52
2018-07-20T09:50:43.710Z,1008.56
2018-07-20T09:51:43.696Z,1008.55
2018-07-20T09:52:43.790Z,1008.52
2018-07-20T09:53:43.679Z,1008.56
2018-07-20T09:54:43.669Z,1008.54
2018-07-20T09:55:43.662Z,1008.53
2018-07-20T09:56:43.646Z,1008.55
2018-07-20T09:57:43.643Z,1008.56
2018-07-20T09:58:43.632Z,1008.54
2018-07-20T09:59:43.641Z,1008.52
2018-07-20T10:00:43.610Z,1008.52
2018-07-20T10:01:43.600Z,1008.48
2018-07-20T10:02:43.594Z,1008.53
2018-07-20T10:03:43.584Z,1008.53
2018-07-20T10:04:43.567Z,1008.49
2018-07-20T10:05:43.600Z,1008.50
2018-07-20T10:06:43.558Z,1008.48
2018-07-20T10:07:43.546Z,1008.47
2018-07-20T10:08:43.579Z,1008.52
2018-07-20T10:09:43.521Z,1008.50
2018-07-20T10:10:43.514Z,1008.53
2018-07-20T10:11:43.505Z,1008.44
2018-07-20T10:12:43.534Z,1008.41
2018-07-20T10:13:43.481Z,1008.39
2018-07-20T10:14:43.474Z,1008.39
2018-07-20T10:15:43.463Z,1008.41
2018-07-20T10:16:43.458Z,1008.41
2018-07-20T10:17:43.446Z,1008.41
2018-07-20T10:18:43.440Z,1008.42
2018-07-20T10:19:43.428Z,1008.41
2018-07-20T10:20:43.419Z,1008.40
2018-07-20T10:21:43.405Z,1008.37
2018-07-20T10:22:43.394Z,1008.33
2018-07-20T10:23:43.390Z,1008.33
2018-07-20T10:24:43.379Z,1008.36
2018-07-20T10:25:43.373Z,1008.34
2018-07-20T10:26:43.484Z,1008.26
2018-07-20T10:28:43.342Z,1008.26
2018-07-20T10:29:43.357Z,1008.32
2018-07-20T10:30:43.394Z,1008.27
2018-07-20T10:31:43.310Z,1008.29
2018-07-20T10:32:43.356Z,1008.28
2018-07-20T10:33:43.288Z,1008.27
2018-07-20T10:34:43.282Z,1008.24
2018-07-20T10:35:43.269Z,1008.25
2018-07-20T10:36:43.277Z,1008.25
2018-07-20T10:37:43.257Z,1008.27
2018-07-20T10:38:43.249Z,1008.26
2018-07-20T10:39:43.243Z,1008.29
2018-07-20T10:40:43.223Z,1008.23
2018-07-20T10:41:43.222Z,1008.26
2018-07-20T10:42:43.214Z,1008.27
2018-07-20T10:43:43.198Z,1008.30
2018-07-20T10:44:43.192Z,1008.26
2018-07-20T10:45:43.282Z,1008.24
2018-07-20T10:46:43.165Z,1008.22
2018-07-20T10:47:43.153Z,1008.23
2018-07-20T10:48:43.148Z,1008.21
2018-07-20T10:49:43.143Z,1008.16
2018-07-20T10:50:43.138Z,1008.20
2018-07-20T10:51:43.117Z,1008.16
2018-07-20T10:52:43.112Z,1008.24
2018-07-20T10:53:43.112Z,1008.16
2018-07-20T10:54:43.098Z,1008.20
2018-07-20T10:55:43.080Z,1008.17
2018-07-20T10:56:43.069Z,1008.19
2018-07-20T10:57:43.067Z,1008.17
2018-07-20T10:58:43.169Z,1008.12
2018-07-20T10:59:43.048Z,1008.11
2018-07-20T11:00:43.047Z,1008.08
2018-07-20T11:01:43.153Z,1008.06
2018-07-20T11:02:43.019Z,1008.07
2018-07-20T11:03:43.006Z,1008.06
2018-07-20T11:04:42.999Z,1008.05
2018-07-20T11:05:42.995Z,1008.07
2018-07-20T11:06:42.979Z,1008.03
2018-07-20T11:07:42.973Z,1008.05
2018-07-20T11:08:42.963Z,1008.04
2018-07-20T11:09:42.963Z,1008.09
2018-07-20T11:10:42.941Z,1008.06
2018-07-20T11:11:42.929Z,1008.05
2018-07-20T11:12:42.927Z,1008.02
2018-07-20T11:13:42.920Z,1008.02
2018-07-20T11:14:42.903Z,1008.03
2018-07-20T11:15:42.906Z,1008.02
2018-07-20T11:16:42.882Z,1007.98
2018-07-20T11:17:42.874Z,1008.01
2018-07-20T11:18:42.884Z,1008.04
2018-07-20T11:19:42.867Z,1008.05
2018-07-20T11:20:42.849Z,1008.04
2018-07-20T11:21:42.839Z,1008.00
2018-07-20T11:22:42.948Z,1007.98
2018-07-20T11:23:42.831Z,1008.01
2018-07-20T11:24:42.823Z,1008.01
2018-07-20T11:25:42.871Z,1007.98
2018-07-20T11:26:42.793Z,1007.91
2018-07-20T11:27:42.783Z,1007.95
2018-07-20T11:28:42.775Z,1007.90
2018-07-20T11:29:42.764Z,1007.86
2018-07-20T11:30:42.756Z,1007.92
2018-07-20T11:31:42.756Z,1007.91
2018-07-20T11:32:42.737Z,1007.89
2018-07-20T11:33:42.733Z,1007.90
2018-07-20T11:34:42.742Z,1007.91
2018-07-20T11:35:42.713Z,1007.89
2018-07-20T11:36:42.702Z,1007.79
2018-07-20T11:37:42.694Z,1007.77
2018-07-20T11:38:42.884Z,1007.73
2018-07-20T11:39:42.677Z,1007.77
2018-07-20T11:40:42.667Z,1007.79
2018-07-20T11:41:42.659Z,1007.78
2018-07-20T11:42:42.656Z,1007.77
2018-07-20T11:43:42.642Z,1007.76
2018-07-20T11:44:42.630Z,1007.62
2018-07-20T11:45:42.625Z,1007.69
2018-07-20T11:46:42.624Z,1007.73
2018-07-20T11:47:42.608Z,1007.65
2018-07-20T11:48:42.600Z,1007.58
2018-07-20T11:49:42.588Z,1007.68
2018-07-20T11:50:42.589Z,1007.71
2018-07-20T11:51:42.566Z,1007.70
2018-07-20T11:52:42.555Z,1007.59
2018-07-20T11:53:42.560Z,1007.60
2018-07-20T11:54:42.544Z,1007.53
2018-07-20T11:55:42.539Z,1007.67
2018-07-20T11:56:42.520Z,1007.60
2018-07-20T11:57:42.519Z,1007.59
2018-07-20T11:58:42.504Z,1007.69
2018-07-20T11:59:42.655Z,1007.66
2018-07-20T12:00:42.488Z,1007.65
2018-07-20T12:01:42.478Z,1007.63
2018-07-20T12:02:42.488Z,1007.59
2018-07-20T12:03:42.457Z,1007.58
2018-07-20T12:04:42.457Z,1007.60
2018-07-20T12:05:42.441Z,1007.57
2018-07-20T12:06:42.434Z,1007.58